createdAt,value
2018-07-03T00:02:03.959Z,69.40
2018-07-03T00:04:34.384Z,69.80
2018-07-03T00:07:05.181Z,69.30
2018-07-03T00:09:35.565Z,71.80
2018-07-03T00:12:06.031Z,71.20
2018-07-03T00:14:36.598Z,70.90
2018-07-03T00:17:12.342Z,70.90
2018-07-03T00:19:42.823Z,71.10
2018-07-03T00:22:13.262Z,71.50
2018-07-03T00:24:44.247Z,72.30
2018-07-03T00:27:15.253Z,72.40
2018-07-03T00:29:45.716Z,72.20
2018-07-03T00:32:16.169Z,72.70
2018-07-03T00:34:46.610Z,72.90
2018-07-03T00:37:17.081Z,73.10
2018-07-03T00:39:47.467Z,73.20
2018-07-03T00:42:17.901Z,73.30
2018-07-03T00:44:48.353Z,73.40
2018-07-03T00:47:18.789Z,73.60
2018-07-03T00:49:49.288Z,73.40
2018-07-03T00:52:19.814Z,73.30
2018-07-03T00:54:50.188Z,73.60
2018-07-03T00:58:23.685Z,73.90
2018-07-03T01:00:54.112Z,74.00
2018-07-03T01:03:24.599Z,75.00
2018-07-03T01:05:55.050Z,74.80
2018-07-03T01:08:25.553Z,75.10
2018-07-03T01:10:56.043Z,75.20
2018-07-03T01:13:26.596Z,74.80
2018-07-03T01:15:57.180Z,74.90
2018-07-03T01:18:27.702Z,75.30
2018-07-03T01:20:58.146Z,75.50
2018-07-03T01:23:28.725Z,76.10
2018-07-03T01:28:29.178Z,77.00
2018-07-03T01:30:59.647Z,77.20
2018-07-03T01:33:30.032Z,77.20
2018-07-03T01:36:00.445Z,77.40
2018-07-03T01:38:30.901Z,78.00
2018-07-03T01:41:01.444Z,78.00
2018-07-03T01:43:31.899Z,78.10
2018-07-03T01:46:02.327Z,78.10
2018-07-03T01:48:32.845Z,77.40
2018-07-03T01:51:03.377Z,77.40
2018-07-03T01:53:33.908Z,77.50
2018-07-03T01:56:04.503Z,77.60
2018-07-03T01:58:34.921Z,78.10
2018-07-03T02:01:05.340Z,78.90
2018-07-03T02:03:35.728Z,79.40
2018-07-03T02:06:06.246Z,79.70
2018-07-03T02:08:36.680Z,79.70
2018-07-03T02:11:07.217Z,79.70
2018-07-03T02:13:37.624Z,79.80
2018-07-03T02:16:08.175Z,79.90
2018-07-03T02:18:38.621Z,79.30
2018-07-03T02:21:09.104Z,79.50
2018-07-03T02:23:39.477Z,79.70
2018-07-03T02:26:09.926Z,79.80
2018-07-03T02:28:40.378Z,80.10
2018-07-03T02:31:10.891Z,79.90
2018-07-03T02:33:41.291Z,79.80
2018-07-03T02:36:11.804Z,79.80
2018-07-03T02:38:42.222Z,80.80
2018-07-03T02:41:12.893Z,80.90
2018-07-03T02:43:43.410Z,81.50
2018-07-03T02:46:13.958Z,81.30
2018-07-03T02:48:44.376Z,82.20
2018-07-03T02:51:15.453Z,81.20
2018-07-03T02:53:45.824Z,81.20
2018-07-03T02:56:16.225Z,81.50
2018-07-03T02:58:46.622Z,80.70
2018-07-03T03:01:17.185Z,80.80
2018-07-03T03:03:47.652Z,81.30
2018-07-03T03:06:18.207Z,81.80
2018-07-03T03:08:48.676Z,82.30
2018-07-03T03:11:23.054Z,82.20
2018-07-03T03:13:55.638Z,82.20
2018-07-03T03:16:26.100Z,82.30
2018-07-03T03:18:56.602Z,81.90
2018-07-03T03:21:26.998Z,81.50
2018-07-03T03:23:57.486Z,81.70
2018-07-03T03:26:27.925Z,82.70
2018-07-03T03:28:58.346Z,82.70
2018-07-03T03:31:28.889Z,82.60
2018-07-03T03:33:59.220Z,82.60
2018-07-03T03:36:29.623Z,82.00
2018-07-03T03:39:00.121Z,81.90
2018-07-03T03:41:32.661Z,81.60
2018-07-03T03:44:03.141Z,81.00
2018-07-03T03:46:33.713Z,81.50
2018-07-03T03:49:04.135Z,82.10
2018-07-03T03:51:34.657Z,81.90
2018-07-03T03:54:05.148Z,82.20
2018-07-03T03:56:35.607Z,81.90
2018-07-03T03:59:06.038Z,81.30
2018-07-03T04:01:36.512Z,80.30
2018-07-03T04:04:07.073Z,80.80
2018-07-03T04:06:37.601Z,81.70
2018-07-03T04:09:10.612Z,82.10
2018-07-03T04:11:41.042Z,81.90
2018-07-03T04:14:11.672Z,81.70
2018-07-03T04:16:42.197Z,81.50
2018-07-03T04:19:12.687Z,81.60
2018-07-03T04:21:43.117Z,81.30
2018-07-03T04:24:14.773Z,82.00
2018-07-03T04:26:45.217Z,82.20
2018-07-03T04:29:15.803Z,82.00
2018-07-03T04:31:46.268Z,82.00
2018-07-03T04:34:16.757Z,82.40
2018-07-03T04:36:47.184Z,81.40
2018-07-03T04:39:17.647Z,78.40
2018-07-03T04:41:48.158Z,79.00
2018-07-03T04:44:18.659Z,77.10
2018-07-03T04:46:49.388Z,74.80
2018-07-03T04:49:19.944Z,73.80
2018-07-03T04:51:50.411Z,74.00
2018-07-03T04:54:20.881Z,75.10
2018-07-03T04:56:51.402Z,75.90
2018-07-03T04:59:21.957Z,74.90
2018-07-03T05:01:52.482Z,74.40
2018-07-03T05:04:22.977Z,73.90
2018-07-03T05:06:53.513Z,73.40
2018-07-03T05:09:24.140Z,71.80
2018-07-03T05:14:25.387Z,68.90
2018-07-03T05:16:59.045Z,66.40
2018-07-03T05:19:30.798Z,64.40
2018-07-03T05:22:01.221Z,63.20
2018-07-03T05:24:31.758Z,62.70
2018-07-03T05:27:02.251Z,62.00
2018-07-03T05:29:32.679Z,62.50
2018-07-03T05:32:03.201Z,61.00
2018-07-03T05:34:33.630Z,62.00
2018-07-03T05:37:04.134Z,60.70
2018-07-03T05:39:34.664Z,59.90
2018-07-03T05:42:05.182Z,60.20
2018-07-03T05:44:35.634Z,60.40
2018-07-03T05:47:06.159Z,61.20
2018-07-03T05:49:36.603Z,60.00
2018-07-03T05:52:07.380Z,59.60
2018-07-03T05:54:37.803Z,58.40
2018-07-03T05:57:08.356Z,58.30
2018-07-03T05:59:38.807Z,58.70
2018-07-03T06:02:09.357Z,58.70
2018-07-03T06:04:39.901Z,57.60
2018-07-03T06:07:10.337Z,57.00
2018-07-03T06:09:40.846Z,57.30
2018-07-03T06:12:11.345Z,57.40
2018-07-03T06:14:41.841Z,57.30
2018-07-03T06:17:15.329Z,56.80
2018-07-03T06:19:45.763Z,56.40
2018-07-03T06:22:16.138Z,57.10
2018-07-03T06:24:46.785Z,57.20
2018-07-03T06:27:17.296Z,57.50
2018-07-03T06:29:47.714Z,56.60
2018-07-03T06:32:18.231Z,57.30
2018-07-03T06:34:48.823Z,57.00
2018-07-03T06:37:19.971Z,57.00
2018-07-03T06:39:50.417Z,56.60
2018-07-03T06:42:20.957Z,56.60
2018-07-03T06:44:51.424Z,56.80
2018-07-03T06:47:22.044Z,56.40
2018-07-03T06:49:52.478Z,57.00
2018-07-03T06:52:22.990Z,57.90
2018-07-03T06:54:53.461Z,56.90
2018-07-03T06:57:24.124Z,58.00
2018-07-03T06:59:54.511Z,58.30
2018-07-03T07:02:25.087Z,57.20
2018-07-03T07:04:55.564Z,57.90
2018-07-03T07:07:26.036Z,57.60
2018-07-03T07:09:56.556Z,58.30
2018-07-03T07:12:27.089Z,58.80
2018-07-03T07:14:57.614Z,58.10
2018-07-03T07:17:28.093Z,58.00
2018-07-03T07:19:58.559Z,58.60
2018-07-03T07:22:28.985Z,57.10
2018-07-03T07:24:59.542Z,58.20
2018-07-03T07:27:30.131Z,57.80
2018-07-03T07:30:00.620Z,57.50
2018-07-03T07:32:31.309Z,57.50
2018-07-03T07:35:01.787Z,57.50
2018-07-03T07:37:32.335Z,57.00
2018-07-03T07:41:05.682Z,58.10
2018-07-03T07:43:36.152Z,57.80
2018-07-03T07:46:06.628Z,58.20
2018-07-03T07:48:37.146Z,58.30
2018-07-03T07:51:07.644Z,58.20
2018-07-03T07:53:38.140Z,59.00
2018-07-03T07:56:08.688Z,58.10
2018-07-03T07:58:39.183Z,58.30
2018-07-03T08:01:10.263Z,58.10
2018-07-03T08:03:40.816Z,58.30
2018-07-03T08:06:11.258Z,56.80
2018-07-03T08:08:41.772Z,58.10
2018-07-03T08:11:12.245Z,55.40
2018-07-03T08:13:42.714Z,56.40
2018-07-03T08:16:13.224Z,56.00
2018-07-03T08:18:43.825Z,57.10
2018-07-03T08:21:14.305Z,56.20
2018-07-03T08:23:44.844Z,56.30
2018-07-03T08:26:15.337Z,57.70
2018-07-03T08:28:45.794Z,57.00
2018-07-03T08:31:16.530Z,56.70
2018-07-03T08:33:46.972Z,56.20
2018-07-03T08:36:17.448Z,56.60
2018-07-03T08:38:47.952Z,56.50
2018-07-03T08:41:18.542Z,57.30
2018-07-03T08:43:49.028Z,56.50
2018-07-03T08:46:19.597Z,56.30
2018-07-03T08:48:50.184Z,56.20
2018-07-03T08:51:20.704Z,55.70
2018-07-03T08:53:51.202Z,54.60
2018-07-03T08:56:21.676Z,54.60
2018-07-03T08:58:52.138Z,54.90
2018-07-03T09:01:22.789Z,54.40
2018-07-03T09:03:53.233Z,55.60
2018-07-03T09:06:23.755Z,54.30
2018-07-03T09:08:54.352Z,54.40
2018-07-03T09:11:24.815Z,54.50
2018-07-03T09:13:55.462Z,54.50
2018-07-03T09:16:25.964Z,53.80
2018-07-03T09:18:56.368Z,54.00
2018-07-03T09:21:26.807Z,53.70
2018-07-03T09:23:57.226Z,52.90
2018-07-03T09:26:27.721Z,51.90
2018-07-03T09:28:58.196Z,52.10
2018-07-03T09:31:28.591Z,50.50
2018-07-03T09:33:59.046Z,50.30
2018-07-03T09:36:29.542Z,51.00
2018-07-03T09:38:59.941Z,50.70
2018-07-03T09:41:30.369Z,50.50
2018-07-03T09:44:01.156Z,50.20
2018-07-03T09:46:31.680Z,50.20
2018-07-03T09:49:02.151Z,48.60
2018-07-03T09:51:32.638Z,49.40
2018-07-03T09:54:03.142Z,51.00
2018-07-03T09:56:34.095Z,50.20
2018-07-03T09:59:04.687Z,50.60
2018-07-03T10:01:35.159Z,49.50
2018-07-03T10:04:05.690Z,50.40
2018-07-03T10:06:36.122Z,49.10
2018-07-03T10:09:09.472Z,49.20
2018-07-03T10:11:39.880Z,48.00
2018-07-03T10:14:10.569Z,49.30
2018-07-03T10:16:40.966Z,49.40
2018-07-03T10:19:11.441Z,49.90
2018-07-03T10:21:41.874Z,48.90
2018-07-03T10:24:12.334Z,48.00
2018-07-03T10:26:42.804Z,49.60
2018-07-03T10:29:13.312Z,49.20
2018-07-03T10:31:43.841Z,47.60
2018-07-03T10:34:14.304Z,47.60
2018-07-03T10:36:44.868Z,49.30
2018-07-03T10:39:15.387Z,48.00
2018-07-03T10:41:45.865Z,48.50
2018-07-03T10:44:16.465Z,48.20
2018-07-03T10:46:46.880Z,46.60
2018-07-03T10:49:17.334Z,47.70
2018-07-03T10:51:47.807Z,46.90
2018-07-03T10:54:18.356Z,46.20
2018-07-03T10:56:49.036Z,47.60
2018-07-03T10:59:20.838Z,47.10
2018-07-03T11:01:51.257Z,47.30
2018-07-03T11:04:21.755Z,47.40
2018-07-03T11:06:52.147Z,47.70
2018-07-03T11:09:22.591Z,47.90
2018-07-03T11:11:53.046Z,47.20
2018-07-03T11:14:23.552Z,48.00
2018-07-03T11:16:54.090Z,48.40
2018-07-03T11:19:24.583Z,48.50
2018-07-03T11:21:55.176Z,48.70
2018-07-03T11:24:25.926Z,49.30
2018-07-03T11:26:56.625Z,50.30
2018-07-03T11:29:27.086Z,49.60
2018-07-03T11:31:57.570Z,50.40
2018-07-03T11:34:28.041Z,49.90
2018-07-03T11:36:58.663Z,50.00
2018-07-03T11:39:29.332Z,50.20
2018-07-03T11:41:59.933Z,49.90
2018-07-03T11:44:30.484Z,50.80
2018-07-03T11:47:00.921Z,50.40
2018-07-03T11:49:31.374Z,50.50
2018-07-03T11:52:01.933Z,51.60
2018-07-03T11:54:32.440Z,51.90
2018-07-03T11:57:03.046Z,51.30
2018-07-03T11:59:33.436Z,51.60
2018-07-03T12:02:03.995Z,52.40
2018-07-03T12:04:34.415Z,51.80
2018-07-03T12:07:04.869Z,52.70
2018-07-03T12:09:35.304Z,53.00
2018-07-03T12:12:05.837Z,53.10
2018-07-03T12:14:36.303Z,53.30
2018-07-03T12:17:06.729Z,54.20
2018-07-03T12:19:37.185Z,54.60
2018-07-03T12:22:07.580Z,55.40
2018-07-03T12:24:38.245Z,56.80
2018-07-03T12:27:08.725Z,57.10
2018-07-03T12:29:39.213Z,57.10
2018-07-03T12:32:09.625Z,57.80
2018-07-03T12:34:40.378Z,57.20
2018-07-03T12:37:10.899Z,57.20
2018-07-03T12:39:41.259Z,57.00
2018-07-03T12:44:41.796Z,56.60
2018-07-03T12:47:12.233Z,56.70
2018-07-03T12:49:42.823Z,57.40
2018-07-03T12:52:13.337Z,56.30
2018-07-03T12:54:43.961Z,56.00
2018-07-03T12:57:14.427Z,56.70
2018-07-03T12:59:44.990Z,56.70
2018-07-03T13:02:15.622Z,56.20
2018-07-03T13:04:46.179Z,55.90
2018-07-03T13:07:16.674Z,56.20
2018-07-03T13:09:47.066Z,56.60
2018-07-03T13:12:17.466Z,57.20
2018-07-03T13:14:47.987Z,57.10
2018-07-03T13:17:18.396Z,57.50
2018-07-03T13:19:48.907Z,55.50
2018-07-03T13:22:19.381Z,56.00
2018-07-03T13:24:49.932Z,56.60
2018-07-03T13:27:20.512Z,57.20
2018-07-03T13:29:51.054Z,57.30
2018-07-03T13:32:21.746Z,57.00
2018-07-03T13:34:52.266Z,56.00
2018-07-03T13:37:22.804Z,56.30
2018-07-03T13:39:53.270Z,54.90
2018-07-03T13:42:24.456Z,55.90
2018-07-03T13:44:57.848Z,57.00
2018-07-03T13:47:28.485Z,56.30
2018-07-03T13:49:58.873Z,55.80
2018-07-03T13:52:29.793Z,56.00
2018-07-03T13:55:00.208Z,56.90
2018-07-03T13:57:31.304Z,57.50
2018-07-03T14:00:01.829Z,57.00
2018-07-03T14:02:32.263Z,57.70
2018-07-03T14:05:02.738Z,56.80
2018-07-03T14:07:33.267Z,55.90
2018-07-03T14:10:03.853Z,56.70
2018-07-03T14:12:34.402Z,57.00
2018-07-03T14:15:05.590Z,56.60
2018-07-03T14:17:36.087Z,56.80
2018-07-03T14:20:06.597Z,56.20
2018-07-03T14:22:37.573Z,55.80
2018-07-03T14:25:08.158Z,55.30
2018-07-03T14:27:38.643Z,55.40
2018-07-03T14:30:09.121Z,54.70
2018-07-03T14:32:39.554Z,54.80
2018-07-03T14:35:09.976Z,54.10
2018-07-03T14:37:40.464Z,56.10
2018-07-03T14:40:10.927Z,55.40
2018-07-03T14:42:41.415Z,56.10
2018-07-03T14:45:11.890Z,56.20
2018-07-03T14:47:42.387Z,55.30
2018-07-03T14:50:13.424Z,55.30
2018-07-03T14:55:13.941Z,54.30
2018-07-03T14:57:44.416Z,55.30
2018-07-03T15:02:45.742Z,54.90
2018-07-03T15:05:16.291Z,55.10
2018-07-03T15:07:46.866Z,54.50
2018-07-03T15:10:17.256Z,55.90
2018-07-03T15:15:17.774Z,54.60
2018-07-03T15:17:48.196Z,54.70
2018-07-03T15:20:18.773Z,54.60
2018-07-03T15:22:49.293Z,54.40
2018-07-03T15:25:19.908Z,54.40
2018-07-03T15:27:50.368Z,54.00
2018-07-03T15:30:21.934Z,54.50
2018-07-03T15:32:52.375Z,53.80
2018-07-03T15:35:22.886Z,54.20
2018-07-03T15:37:53.413Z,54.70
2018-07-03T15:40:24.262Z,54.20
2018-07-03T15:42:54.862Z,54.60
2018-07-03T15:45:25.384Z,54.20
2018-07-03T15:47:55.832Z,53.90
2018-07-03T15:50:26.253Z,54.30
2018-07-03T15:52:56.631Z,53.40
2018-07-03T15:55:27.110Z,53.40
2018-07-03T15:57:57.576Z,52.10
2018-07-03T16:00:27.941Z,53.50
2018-07-03T16:05:58.326Z,53.30
2018-07-03T16:08:49.778Z,52.50
2018-07-03T16:11:20.320Z,52.30
2018-07-03T16:13:50.994Z,52.90
2018-07-03T16:16:21.508Z,53.30
2018-07-03T16:18:52.012Z,53.30
2018-07-03T16:21:22.467Z,54.40
2018-07-03T16:26:22.879Z,52.60
2018-07-03T16:28:53.948Z,53.50
2018-07-03T16:31:25.185Z,52.50
2018-07-03T16:33:56.857Z,53.40
2018-07-03T16:36:27.435Z,53.20
2018-07-03T16:38:57.905Z,53.40
2018-07-03T16:41:28.545Z,53.50
2018-07-03T16:43:59.052Z,53.80
2018-07-03T16:46:29.577Z,52.70
2018-07-03T16:49:00.071Z,52.90
2018-07-03T16:51:30.618Z,52.90
2018-07-03T16:54:01.136Z,52.70
2018-07-03T16:56:31.634Z,53.10
2018-07-03T16:59:02.068Z,53.20
2018-07-03T17:01:32.519Z,53.50
2018-07-03T17:04:03.196Z,53.30
2018-07-03T17:09:05.154Z,53.30
2018-07-03T17:11:35.728Z,53.40
2018-07-03T17:14:08.555Z,53.50
2018-07-03T17:16:39.525Z,53.80
2018-07-03T17:19:15.253Z,54.40
2018-07-03T17:21:46.177Z,54.50
2018-07-03T17:24:16.655Z,54.50
2018-07-03T17:26:48.151Z,54.70
2018-07-03T17:29:18.746Z,54.60
2018-07-03T17:31:49.312Z,54.60
2018-07-03T17:34:22.620Z,54.80
2018-07-03T17:36:53.247Z,54.80
2018-07-03T17:39:33.757Z,55.20
2018-07-03T17:42:21.002Z,55.10
2018-07-03T17:46:07.739Z,55.10
2018-07-03T17:48:38.578Z,55.30
2018-07-03T17:51:09.000Z,55.30
2018-07-03T17:53:39.410Z,55.50
2018-07-03T17:56:09.865Z,55.60
2018-07-03T17:58:40.330Z,55.90
2018-07-03T18:01:10.882Z,55.30
2018-07-03T18:03:41.303Z,55.70
2018-07-03T18:06:12.129Z,56.00
2018-07-03T18:08:42.570Z,55.90
2018-07-03T18:11:12.933Z,56.10
2018-07-03T18:13:43.679Z,56.30
2018-07-03T18:16:14.268Z,56.60
2018-07-03T18:18:44.805Z,56.80
2018-07-03T18:21:15.265Z,57.00
2018-07-03T18:23:46.118Z,56.80
2018-07-03T18:26:17.308Z,56.80
2018-07-03T18:28:47.820Z,57.10
2018-07-03T18:31:19.248Z,56.90
2018-07-03T18:33:49.685Z,56.70
2018-07-03T18:36:20.258Z,57.20
2018-07-03T18:38:50.743Z,57.40
2018-07-03T18:41:21.323Z,57.60
2018-07-03T18:43:54.184Z,57.50
2018-07-03T18:46:24.763Z,57.80
2018-07-03T18:48:55.252Z,58.00
2018-07-03T18:51:25.866Z,58.00
2018-07-03T18:53:56.413Z,58.10
2018-07-03T18:56:27.742Z,58.40
2018-07-03T18:58:58.532Z,58.60
2018-07-03T19:01:29.161Z,58.70
2018-07-03T19:03:59.496Z,58.90
2018-07-03T19:06:30.074Z,59.10
2018-07-03T19:11:30.759Z,59.80
2018-07-03T19:14:01.655Z,59.90
2018-07-03T19:16:32.330Z,60.70
2018-07-03T19:19:02.777Z,61.70
2018-07-03T19:21:33.388Z,62.50
2018-07-03T19:24:03.973Z,62.80
2018-07-03T19:26:34.515Z,64.00
2018-07-03T19:29:05.070Z,63.10
2018-07-03T19:31:35.768Z,63.20
2018-07-03T19:34:06.383Z,63.30
2018-07-03T19:36:37.158Z,63.90
2018-07-03T19:39:12.216Z,64.40
2018-07-03T19:41:43.898Z,64.50
2018-07-03T19:44:15.093Z,64.80
2018-07-03T19:46:45.908Z,65.60
2018-07-03T19:49:16.513Z,65.80
2018-07-03T19:51:47.084Z,66.70
2018-07-03T19:54:17.599Z,67.20
2018-07-03T19:56:48.144Z,66.80
2018-07-03T19:59:18.788Z,67.30
2018-07-03T20:01:49.352Z,65.90
2018-07-03T20:04:23.104Z,66.90
2018-07-03T20:06:53.739Z,66.60
2018-07-03T20:09:24.248Z,66.50
2018-07-03T20:11:54.743Z,65.40
2018-07-03T20:14:25.267Z,65.30
2018-07-03T20:16:55.690Z,65.10
2018-07-03T20:19:26.193Z,65.20
2018-07-03T20:21:56.700Z,65.50
2018-07-03T20:24:27.205Z,66.00
2018-07-03T20:26:57.786Z,66.50
2018-07-03T20:29:28.267Z,66.90
2018-07-03T20:31:59.093Z,67.30
2018-07-03T20:34:29.837Z,67.50
2018-07-03T20:37:00.308Z,67.90
2018-07-03T20:39:30.796Z,68.00
2018-07-03T20:42:01.266Z,68.60
2018-07-03T20:44:31.759Z,68.70
2018-07-03T20:47:02.287Z,69.00
2018-07-03T20:52:02.726Z,69.40
2018-07-03T20:54:33.193Z,70.90
2018-07-03T20:57:03.708Z,71.00
2018-07-03T20:59:34.155Z,71.30
2018-07-03T21:02:04.609Z,71.70
2018-07-03T21:04:35.116Z,72.30
2018-07-03T21:07:05.496Z,72.70
2018-07-03T21:09:36.005Z,72.90
2018-07-03T21:12:06.491Z,73.20
2018-07-03T21:14:37.010Z,73.60
2018-07-03T21:17:07.516Z,73.20
2018-07-03T21:19:38.028Z,73.60
2018-07-03T21:22:08.533Z,73.70
2018-07-03T21:24:39.271Z,74.00
2018-07-03T21:27:10.215Z,74.20
2018-07-03T21:29:41.068Z,74.60
2018-07-03T21:32:11.558Z,75.00
2018-07-03T21:34:42.973Z,75.00
2018-07-03T21:37:13.361Z,75.00
2018-07-03T21:39:43.865Z,75.20
2018-07-03T21:42:14.281Z,75.40
2018-07-03T21:44:44.719Z,75.90
2018-07-03T21:47:15.210Z,75.80
2018-07-03T21:49:45.908Z,76.60
2018-07-03T21:52:16.369Z,77.60
2018-07-03T21:54:46.843Z,78.00
2018-07-03T21:57:17.290Z,78.30
2018-07-03T21:59:47.781Z,77.70
2018-07-03T22:02:18.216Z,77.70
2018-07-03T22:04:49.488Z,78.80
2018-07-03T22:07:19.905Z,79.00
2018-07-03T22:09:50.397Z,79.20
2018-07-03T22:12:20.923Z,79.50
2018-07-03T22:17:21.367Z,79.60
2018-07-03T22:19:51.741Z,81.00
2018-07-03T22:22:22.170Z,80.60
2018-07-03T22:24:52.637Z,82.00
2018-07-03T22:27:23.211Z,81.40
2018-07-03T22:29:53.594Z,81.50
2018-07-03T22:32:24.084Z,82.40
2018-07-03T22:34:54.521Z,82.00
2018-07-03T22:37:24.934Z,83.60
2018-07-03T22:39:55.365Z,83.30
2018-07-03T22:42:25.883Z,82.90
2018-07-03T22:44:56.318Z,82.80
2018-07-03T22:47:27.574Z,83.40
2018-07-03T22:49:57.979Z,84.10
2018-07-03T22:52:28.485Z,83.60
2018-07-03T22:54:59.026Z,83.20
2018-07-03T22:57:30.252Z,83.50
2018-07-03T23:00:00.856Z,82.00
2018-07-03T23:02:31.340Z,82.00
2018-07-03T23:05:01.811Z,81.80
2018-07-03T23:07:32.295Z,84.80
2018-07-03T23:10:02.768Z,85.10
2018-07-03T23:12:33.214Z,84.70
2018-07-03T23:15:03.673Z,84.80
2018-07-03T23:17:34.106Z,84.20
2018-07-03T23:20:04.537Z,85.10
2018-07-03T23:22:35.022Z,85.40
2018-07-03T23:25:05.493Z,85.30
2018-07-03T23:27:35.989Z,85.50
2018-07-03T23:30:06.517Z,85.40
2018-07-03T23:32:36.971Z,85.30
2018-07-03T23:35:07.367Z,86.10
2018-07-03T23:37:37.784Z,86.40
2018-07-03T23:40:08.243Z,87.60
2018-07-03T23:42:38.655Z,88.20
2018-07-03T23:45:09.059Z,88.00
2018-07-03T23:47:56.601Z,87.60
2018-07-03T23:53:37.024Z,88.30
2018-07-03T23:56:30.410Z,88.00
2018-07-03T23:59:23.816Z,88.20
